Time;durP1;ratioP1;P1;durP2;ratioP2;P2;SDS_P1;SDS_P2;PMS_P1;PMS_P2;Temp;Humidity;BMP_temperature;BMP_pressure;BME280_temperature;BME280_humidity;BME280_pressure;Samples;Min_cycle;Max_cycle;Signal;HPM_P1;HPM_P2
2021/06/21 00:01:55;;;;;;;14.77;7.83;;;21.30;99.90;;;;;;4432477;28;658274;-75
2021/06/21 00:04:43;;;;;;;16.63;7.60;;;21.40;99.90;;;;;;4412065;28;657425;-73
2021/06/21 00:07:30;;;;;;;14.53;7.27;;;21.40;99.90;;;;;;4441320;28;658239;-74
2021/06/21 00:10:19;;;;;;;9.70;7.53;;;21.30;99.90;;;;;;4429910;28;657846;-71
2021/06/21 00:13:07;;;;;;;10.17;7.50;;;21.30;99.90;;;;;;4449987;28;656572;-74
2021/06/21 00:15:54;;;;;;;13.57;7.23;;;21.30;99.90;;;;;;4425668;28;658236;-74
2021/06/21 00:18:42;;;;;;;12.40;7.10;;;21.30;99.90;;;;;;4448517;28;657914;-74
2021/06/21 00:21:29;;;;;;;10.03;6.77;;;21.20;99.90;;;;;;4420164;28;658484;-73
2021/06/21 00:24:20;;;;;;;13.57;7.23;;;21.20;99.90;;;;;;4432101;28;657486;-74
2021/06/21 00:27:09;;;;;;;15.93;6.97;;;21.20;99.90;;;;;;4395404;28;658251;-70
2021/06/21 00:29:57;;;;;;;10.47;6.93;;;21.10;99.90;;;;;;4432056;28;658014;-73
2021/06/21 00:32:45;;;;;;;11.03;6.87;;;21.10;99.90;;;;;;4413511;28;658143;-73
2021/06/21 00:35:36;;;;;;;12.90;7.20;;;21.10;99.90;;;;;;4441676;28;657798;-71
2021/06/21 00:38:23;;;;;;;10.40;7.00;;;21.10;99.90;;;;;;4429625;28;657750;-72
2021/06/21 00:41:11;;;;;;;11.60;7.53;;;21.10;99.90;;;;;;4448896;28;658977;-74
2021/06/21 00:44:00;;;;;;;10.97;7.00;;;21.00;99.90;;;;;;4429360;28;657576;-73
2021/06/21 00:46:48;;;;;;;11.73;7.33;;;21.00;99.90;;;;;;4434552;28;657857;-71
2021/06/21 00:49:35;;;;;;;10.73;6.90;;;21.00;99.90;;;;;;4443751;28;658991;-73
2021/06/21 00:52:23;;;;;;;9.20;6.53;;;20.90;99.90;;;;;;4415473;28;657542;-71
2021/06/21 00:55:11;;;;;;;14.10;7.10;;;20.90;99.90;;;;;;4432573;28;657318;-73
2021/06/21 00:57:59;;;;;;;10.07;6.97;;;20.80;99.90;;;;;;4408718;28;657454;-73
2021/06/21 01:00:48;;;;;;;14.50;7.53;;;20.80;99.90;;;;;;4433698;28;657750;-73
2021/06/21 01:03:35;;;;;;;17.33;7.67;;;20.80;99.90;;;;;;4425106;28;658054;-73
2021/06/21 01:06:23;;;;;;;12.77;7.27;;;20.70;99.90;;;;;;4432357;28;657588;-72
2021/06/21 01:09:10;;;;;;;9.27;6.73;;;20.70;99.90;;;;;;4455706;28;659344;-74
2021/06/21 01:12:03;;;;;;;7.53;6.63;;;20.70;99.90;;;;;;4433659;28;656515;-72
2021/06/21 01:14:52;;;;;;;14.37;7.53;;;20.70;99.90;;;;;;4428712;28;658145;-73
2021/06/21 01:17:44;;;;;;;15.93;6.80;;;20.70;99.90;;;;;;4397712;28;658560;-73
2021/06/21 01:20:56;;;;;;;9.67;6.70;;;20.70;99.90;;;;;;4393144;28;657661;-73
2021/06/21 01:24:16;;;;;;;8.90;6.43;;;20.70;99.90;;;;;;4398794;28;656424;-73
2021/06/21 01:27:09;;;;;;;11.40;7.07;;;20.70;99.90;;;;;;4375637;28;657132;-72
2021/06/21 01:30:04;;;;;;;15.07;6.57;;;20.60;99.90;;;;;;4399922;28;658176;-73
2021/06/21 01:32:54;;;;;;;18.50;6.87;;;20.60;99.90;;;;;;4428245;28;657618;-73
2021/06/21 01:35:44;;;;;;;16.43;6.67;;;20.50;99.90;;;;;;4427973;28;657580;-73
2021/06/21 01:38:32;;;;;;;13.83;7.40;;;20.50;99.90;;;;;;4427536;28;659130;-73
2021/06/21 01:41:21;;;;;;;13.63;6.40;;;20.50;99.90;;;;;;4428065;28;659105;-72
2021/06/21 01:44:08;;;;;;;14.67;7.40;;;20.50;99.90;;;;;;4424607;28;658254;-72
2021/06/21 01:46:56;;;;;;;11.13;6.50;;;20.40;99.90;;;;;;4423262;28;658805;-74
2021/06/21 01:49:46;;;;;;;13.07;6.53;;;20.30;99.90;;;;;;4414259;28;657668;-72
2021/06/21 01:52:35;;;;;;;13.13;6.53;;;20.30;99.90;;;;;;4412158;28;658029;-72
2021/06/21 01:55:23;;;;;;;12.20;6.70;;;20.30;99.90;;;;;;4415355;28;658017;-71
2021/06/21 01:58:11;;;;;;;14.13;6.97;;;20.30;99.90;;;;;;4434300;28;658427;-73
2021/06/21 02:00:59;;;;;;;14.23;6.53;;;20.30;99.90;;;;;;4413421;28;657408;-73
2021/06/21 02:03:47;;;;;;;15.53;6.40;;;20.30;99.90;;;;;;4434092;28;657817;-73
2021/06/21 02:06:36;;;;;;;14.20;6.57;;;20.30;99.90;;;;;;4410931;28;658747;-73
2021/06/21 02:09:24;;;;;;;15.87;6.87;;;20.30;99.90;;;;;;4414055;28;657729;-73
2021/06/21 02:12:12;;;;;;;11.37;6.87;;;20.20;99.90;;;;;;4437621;28;656978;-72
2021/06/21 02:15:00;;;;;;;17.73;6.37;;;20.30;99.90;;;;;;4414893;28;658664;-73
2021/06/21 02:17:48;;;;;;;12.27;6.60;;;20.20;99.90;;;;;;4433152;28;658207;-70
2021/06/21 02:20:35;;;;;;;11.43;6.27;;;20.30;99.90;;;;;;4433187;28;658751;-73
2021/06/21 02:23:24;;;;;;;10.73;6.40;;;20.20;99.90;;;;;;4414803;28;657893;-70
2021/06/21 02:26:12;;;;;;;15.17;6.63;;;20.20;99.90;;;;;;4431336;28;657640;-72
2021/06/21 02:29:00;;;;;;;12.67;6.37;;;20.20;99.90;;;;;;4393269;28;658567;-72
2021/06/21 02:31:48;;;;;;;12.27;6.23;;;20.10;99.90;;;;;;4397779;28;657734;-69
2021/06/21 02:34:35;;;;;;;13.47;6.70;;;20.20;99.90;;;;;;4420111;28;658079;-72
2021/06/21 02:37:23;;;;;;;14.07;5.83;;;20.10;99.90;;;;;;4397130;28;657433;-69
2021/06/21 02:40:14;;;;;;;15.17;6.13;;;20.20;99.90;;;;;;4417115;28;658534;-71
2021/06/21 02:43:01;;;;;;;9.40;6.37;;;20.10;99.90;;;;;;4377053;28;658621;-71
2021/06/21 02:45:49;;;;;;;11.03;5.90;;;20.20;99.90;;;;;;4370177;28;656958;-71
2021/06/21 02:48:36;;;;;;;13.50;6.27;;;20.10;99.90;;;;;;4397351;28;659540;-72
2021/06/21 02:51:27;;;;;;;11.40;6.47;;;20.20;99.90;;;;;;4379074;28;658088;-71
2021/06/21 02:54:17;;;;;;;17.80;6.50;;;20.10;99.90;;;;;;4392664;28;658762;-71
2021/06/21 02:57:10;;;;;;;11.63;5.90;;;20.20;99.90;;;;;;4397183;28;657534;-72
2021/06/21 02:59:58;;;;;;;11.57;6.07;;;20.10;99.90;;;;;;4367705;28;657779;-70
2021/06/21 03:02:45;;;;;;;11.47;6.40;;;20.20;99.90;;;;;;4418985;28;659080;-72
2021/06/21 03:05:33;;;;;;;12.97;5.63;;;20.30;99.90;;;;;;4396612;28;658260;-71
2021/06/21 03:08:21;;;;;;;16.70;6.13;;;20.20;99.90;;;;;;4418168;28;658305;-72
2021/06/21 03:11:08;;;;;;;13.37;6.37;;;20.30;99.90;;;;;;4396594;28;657219;-71
2021/06/21 03:13:57;;;;;;;13.60;5.83;;;20.40;99.90;;;;;;4426048;28;657934;-71
2021/06/21 03:16:44;;;;;;;10.57;5.60;;;20.40;99.90;;;;;;4408858;28;659017;-72
2021/06/21 03:19:32;;;;;;;13.13;6.40;;;20.50;99.90;;;;;;4431494;28;657438;-72
2021/06/21 03:22:20;;;;;;;9.67;5.77;;;20.50;99.90;;;;;;4408496;28;659492;-72
2021/06/21 03:25:09;;;;;;;14.83;6.30;;;20.60;99.90;;;;;;4426327;28;657052;-70
2021/06/21 03:27:57;;;;;;;12.67;6.07;;;20.60;99.90;;;;;;4446425;28;658327;-72
2021/06/21 03:30:48;;;;;;;12.23;6.17;;;20.60;99.90;;;;;;4425641;28;659355;-72
2021/06/21 03:33:35;;;;;;;13.27;6.00;;;20.70;99.90;;;;;;4424051;28;659009;-71
2021/06/21 03:36:23;;;;;;;14.18;6.30;;;20.70;99.90;;;;;;4430379;28;657524;-70
2021/06/21 03:39:10;;;;;;;16.30;6.40;;;20.70;99.90;;;;;;4448682;28;659041;-72
2021/06/21 03:41:58;;;;;;;13.77;6.37;;;20.80;99.90;;;;;;4430217;28;657415;-71
2021/06/21 03:44:45;;;;;;;11.90;5.87;;;20.80;99.90;;;;;;4451915;28;658861;-71
2021/06/21 03:47:35;;;;;;;10.53;5.73;;;20.90;99.90;;;;;;4385171;28;657668;-70
2021/06/21 03:50:23;;;;;;;11.47;6.00;;;20.90;99.90;;;;;;4397615;28;657505;-69
2021/06/21 03:53:10;;;;;;;14.23;5.93;;;21.00;99.90;;;;;;4414809;28;658789;-72
2021/06/21 03:55:58;;;;;;;13.40;6.50;;;21.10;99.90;;;;;;4399876;28;657831;-69
2021/06/21 03:58:48;;;;;;;9.80;6.30;;;21.10;99.90;;;;;;4416988;28;659094;-72
2021/06/21 04:01:36;;;;;;;12.07;6.83;;;21.20;99.90;;;;;;4410484;28;656832;-72
2021/06/21 04:04:24;;;;;;;13.47;6.73;;;21.30;99.90;;;;;;4411992;28;657897;-71
2021/06/21 04:07:12;;;;;;;11.33;6.00;;;21.40;99.90;;;;;;4431982;28;658291;-72
2021/06/21 04:09:59;;;;;;;13.17;6.17;;;21.40;99.90;;;;;;4409676;28;658770;-72
2021/06/21 04:12:47;;;;;;;8.00;5.93;;;21.40;99.90;;;;;;4432117;28;657213;-72
2021/06/21 04:15:35;;;;;;;12.63;5.27;;;21.60;99.90;;;;;;4411165;28;657995;-72
2021/06/21 04:18:24;;;;;;;10.13;5.97;;;21.60;99.90;;;;;;4427900;28;657636;-70
2021/06/21 04:21:13;;;;;;;12.53;6.33;;;21.70;99.90;;;;;;4432154;28;657950;-72
2021/06/21 04:24:00;;;;;;;12.07;5.83;;;21.70;99.90;;;;;;4402788;28;657760;-72
2021/06/21 04:26:48;;;;;;;11.00;6.07;;;21.80;99.90;;;;;;4411848;28;657581;-72
2021/06/21 04:29:35;;;;;;;19.30;5.93;;;21.90;99.90;;;;;;4446956;28;659065;-72
2021/06/21 04:32:23;;;;;;;14.43;5.80;;;22.00;99.90;;;;;;4429608;28;657773;-72
2021/06/21 04:35:12;;;;;;;12.40;6.23;;;22.10;99.90;;;;;;4449951;28;658033;-72
2021/06/21 04:38:01;;;;;;;15.43;6.30;;;22.20;99.90;;;;;;4427413;28;658882;-72
2021/06/21 04:40:49;;;;;;;12.47;6.03;;;22.30;99.90;;;;;;4433168;28;658242;-72
2021/06/21 04:43:37;;;;;;;14.67;6.00;;;22.30;99.90;;;;;;4451513;28;657821;-72
2021/06/21 04:46:26;;;;;;;15.33;6.23;;;22.40;99.90;;;;;;4423226;28;657730;-72
2021/06/21 04:49:14;;;;;;;8.50;5.87;;;22.50;99.90;;;;;;4432890;28;657703;-71
2021/06/21 04:52:01;;;;;;;11.67;5.80;;;22.50;99.90;;;;;;4453033;28;656778;-72
2021/06/21 04:54:50;;;;;;;12.57;5.47;;;22.60;99.90;;;;;;4432747;28;657668;-72
2021/06/21 04:57:38;;;;;;;8.77;5.80;;;22.70;99.90;;;;;;4432316;28;657440;-71
2021/06/21 05:00:26;;;;;;;14.67;6.00;;;22.80;99.90;;;;;;4453105;28;657308;-72
2021/06/21 05:03:14;;;;;;;11.20;6.00;;;22.90;99.90;;;;;;4428844;28;657577;-71
2021/06/21 05:06:01;;;;;;;10.00;5.50;;;22.90;99.90;;;;;;4451204;28;657763;-72
2021/06/21 05:08:49;;;;;;;13.57;5.90;;;23.00;99.90;;;;;;4430011;28;658031;-71
2021/06/21 05:11:38;;;;;;;10.13;5.73;;;23.00;99.90;;;;;;4451565;28;658072;-71
2021/06/21 05:14:26;;;;;;;15.23;5.60;;;23.00;99.90;;;;;;4427899;28;658182;-72
2021/06/21 05:17:16;;;;;;;17.73;5.03;;;23.10;99.90;;;;;;4432785;28;658091;-70
2021/06/21 05:20:05;;;;;;;8.47;4.60;;;23.10;99.90;;;;;;4428406;28;657588;-71
2021/06/21 05:22:53;;;;;;;14.97;5.00;;;23.20;99.90;;;;;;4438224;28;656909;-70
2021/06/21 05:25:40;;;;;;;14.80;4.60;;;23.30;99.90;;;;;;4451710;28;658624;-71
2021/06/21 05:28:29;;;;;;;12.07;4.87;;;23.30;99.90;;;;;;4417657;28;657853;-70
2021/06/21 05:31:17;;;;;;;13.00;4.73;;;23.30;99.90;;;;;;4434508;28;658152;-72
2021/06/21 05:34:04;;;;;;;17.17;4.90;;;23.40;99.90;;;;;;4410121;28;658391;-71
2021/06/21 05:36:52;;;;;;;14.30;4.73;;;23.40;99.90;;;;;;4434503;28;658386;-72
2021/06/21 05:39:39;;;;;;;17.47;4.60;;;23.40;99.90;;;;;;4411368;28;658416;-72
2021/06/21 05:42:27;;;;;;;14.97;4.90;;;23.50;99.90;;;;;;4443725;28;657693;-72
2021/06/21 05:45:17;;;;;;;18.73;4.80;;;23.50;99.90;;;;;;4431970;28;658108;-72
2021/06/21 05:48:05;;;;;;;13.13;4.97;;;23.50;99.90;;;;;;4432061;28;658186;-72
2021/06/21 05:50:53;;;;;;;14.87;4.77;;;23.50;99.90;;;;;;4431937;28;657448;-70
2021/06/21 05:53:40;;;;;;;15.37;4.43;;;23.60;99.90;;;;;;4453146;28;657305;-72
2021/06/21 05:56:28;;;;;;;12.57;4.17;;;23.50;99.90;;;;;;4427620;28;658061;-71
2021/06/21 05:59:17;;;;;;;11.57;4.47;;;23.70;99.90;;;;;;4437331;28;657995;-72
2021/06/21 06:02:06;;;;;;;14.57;4.47;;;23.70;99.90;;;;;;4411256;28;658428;-72
2021/06/21 06:04:53;;;;;;;16.03;4.50;;;23.80;99.90;;;;;;4415455;28;657757;-72
2021/06/21 06:07:41;;;;;;;16.63;4.63;;;24.00;99.90;;;;;;4434084;28;658450;-72
2021/06/21 06:10:28;;;;;;;10.00;4.80;;;24.10;99.90;;;;;;4415071;28;657612;-71
2021/06/21 06:13:16;;;;;;;12.23;4.40;;;24.20;99.90;;;;;;4418689;28;658542;-73
2021/06/21 06:16:03;;;;;;;10.53;4.20;;;24.30;99.90;;;;;;4408689;28;657361;-71
2021/06/21 06:18:52;;;;;;;13.40;4.20;;;24.40;99.90;;;;;;4443467;28;658535;-72
2021/06/21 06:21:42;;;;;;;15.50;4.33;;;24.50;99.90;;;;;;4410259;28;658057;-72
2021/06/21 06:24:29;;;;;;;17.03;4.10;;;24.60;99.90;;;;;;4414999;28;657610;-72
2021/06/21 06:27:17;;;;;;;21.03;5.13;;;24.60;99.90;;;;;;4433569;28;657696;-72
2021/06/21 06:30:05;;;;;;;14.63;3.60;;;24.80;99.90;;;;;;4414149;28;658203;-72
2021/06/21 06:32:53;;;;;;;11.17;3.90;;;24.90;99.90;;;;;;4406803;28;657566;-71
2021/06/21 06:35:42;;;;;;;13.70;4.27;;;24.90;99.90;;;;;;4435565;28;658595;-72
2021/06/21 06:38:29;;;;;;;14.63;3.87;;;24.90;99.90;;;;;;4411594;28;658266;-72
2021/06/21 06:41:17;;;;;;;21.30;3.67;;;25.00;99.90;;;;;;4432434;28;658113;-72
2021/06/21 06:44:05;;;;;;;16.47;3.77;;;25.10;99.90;;;;;;4409540;28;658785;-72
2021/06/21 06:46:53;;;;;;;17.80;4.17;;;25.20;99.90;;;;;;4427467;28;658205;-69
2021/06/21 06:49:40;;;;;;;13.57;3.73;;;25.30;99.90;;;;;;4441674;28;658834;-72
2021/06/21 06:52:29;;;;;;;17.38;3.90;;;25.50;99.90;;;;;;4414783;28;657200;-69
2021/06/21 06:58:36;;;;;;;17.60;3.70;;;25.80;99.90;;;;;;4354457;28;658257;-72
2021/06/21 07:01:24;;;;;;;13.07;3.55;;;25.90;99.90;;;;;;4360331;28;657458;-72
2021/06/21 07:04:11;;;;;;;16.73;4.03;;;25.90;99.90;;;;;;4374117;28;657925;-71
2021/06/21 07:06:59;;;;;;;14.50;3.55;;;26.00;99.90;;;;;;4360656;28;657887;-73
2021/06/21 07:09:48;;;;;;;18.08;3.80;;;26.20;99.90;;;;;;4361905;28;658361;-72
2021/06/21 07:12:36;;;;;;;20.83;4.25;;;26.20;99.90;;;;;;4349418;28;658810;-72
2021/06/21 07:15:23;;;;;;;14.02;3.17;;;26.30;99.90;;;;;;4360615;28;657765;-71
2021/06/21 07:18:11;;;;;;;17.70;4.07;;;26.50;99.90;;;;;;4380489;28;658290;-72
2021/06/21 07:20:59;;;;;;;20.95;3.60;;;26.70;99.90;;;;;;4366461;28;658147;-72
2021/06/21 07:23:46;;;;;;;11.45;3.42;;;26.70;99.90;;;;;;4390053;28;657925;-72
2021/06/21 07:26:35;;;;;;;15.27;3.47;;;26.70;99.90;;;;;;4377264;28;657756;-72
2021/06/21 07:29:23;;;;;;;17.17;3.38;;;26.80;99.90;;;;;;4375083;28;657522;-70
2021/06/21 07:32:10;;;;;;;14.50;3.40;;;27.00;99.90;;;;;;4393941;28;658135;-72
2021/06/21 07:34:58;;;;;;;21.77;3.38;;;27.20;99.90;;;;;;4417918;28;657687;-70
2021/06/21 07:37:45;;;;;;;19.10;3.65;;;27.40;99.90;;;;;;4430507;28;659007;-73
2021/06/21 07:40:33;;;;;;;20.52;3.47;;;27.50;99.90;;;;;;4413810;28;657529;-72
2021/06/21 07:43:22;;;;;;;13.40;2.88;;;27.70;99.90;;;;;;4432900;28;657966;-73
2021/06/21 07:46:09;;;;;;;27.95;4.20;;;27.80;99.90;;;;;;4410959;28;658545;-72
2021/06/21 07:48:57;;;;;;;18.73;3.28;;;28.00;99.90;;;;;;4425218;28;658335;-73
2021/06/21 07:51:45;;;;;;;16.63;3.22;;;28.10;99.90;;;;;;4416942;28;658491;-71
2021/06/21 07:54:33;;;;;;;20.65;3.30;;;28.20;99.90;;;;;;4412025;28;657976;-70
2021/06/21 07:57:21;;;;;;;12.38;3.47;;;28.00;99.90;;;;;;4418224;28;658293;-72
2021/06/21 08:00:12;;;;;;;17.25;3.85;;;28.20;99.90;;;;;;4418641;28;657413;-71
2021/06/21 08:02:59;;;;;;;27.30;3.53;;;28.20;99.90;;;;;;4420106;28;658655;-72
2021/06/21 08:05:50;;;;;;;19.30;3.80;;;28.20;99.90;;;;;;4449066;28;657557;-73
2021/06/21 08:08:38;;;;;;;16.05;4.07;;;28.40;99.90;;;;;;4393918;28;658353;-71
2021/06/21 08:11:26;;;;;;;22.17;3.28;;;28.40;99.90;;;;;;4413428;28;658662;-72
2021/06/21 08:14:14;;;;;;;17.80;3.22;;;28.50;99.90;;;;;;4394252;28;657628;-73
2021/06/21 08:17:03;;;;;;;12.13;3.42;;;28.90;99.90;;;;;;4435390;28;657656;-72
2021/06/21 08:19:51;;;;;;;16.63;3.33;;;29.00;99.90;;;;;;4408169;28;658282;-72
2021/06/21 08:22:38;;;;;;;15.80;3.50;;;29.00;99.90;;;;;;4412907;28;657379;-71
2021/06/21 08:25:26;;;;;;;14.60;3.67;;;29.00;99.90;;;;;;4431824;28;658565;-73
2021/06/21 08:28:14;;;;;;;16.92;3.47;;;29.30;99.90;;;;;;4408727;28;658037;-72
2021/06/21 08:31:02;;;;;;;16.92;3.63;;;29.50;99.90;;;;;;4426172;28;657513;-73
2021/06/21 08:33:51;;;;;;;18.80;3.03;;;29.60;99.90;;;;;;4412800;28;657557;-72
2021/06/21 08:36:38;;;;;;;10.43;3.00;;;29.80;99.90;;;;;;4411826;28;658192;-72
2021/06/21 08:39:26;;;;;;;14.07;3.55;;;29.90;99.90;;;;;;4431554;28;658433;-73
2021/06/21 08:42:13;;;;;;;14.40;3.60;;;30.00;99.90;;;;;;4412832;28;657754;-72
2021/06/21 08:45:01;;;;;;;19.23;3.73;;;30.10;99.90;;;;;;4429628;28;658238;-73
2021/06/21 08:47:50;;;;;;;20.90;3.85;;;30.20;99.90;;;;;;4400235;28;657376;-72
2021/06/21 08:50:40;;;;;;;12.90;3.50;;;30.10;99.90;;;;;;4413065;28;658177;-71
2021/06/21 08:53:28;;;;;;;12.27;3.55;;;30.40;99.90;;;;;;4425440;28;657236;-70
2021/06/21 08:56:15;;;;;;;16.08;3.67;;;30.60;99.90;;;;;;4421235;28;658748;-72
2021/06/21 08:59:05;;;;;;;16.40;3.63;;;30.70;99.90;;;;;;4413802;28;657567;-70
2021/06/21 09:01:53;;;;;;;13.05;3.70;;;30.80;99.90;;;;;;4422968;28;658457;-71
2021/06/21 09:04:40;;;;;;;20.35;4.20;;;30.90;99.90;;;;;;4431271;28;657959;-72
2021/06/21 09:07:29;;;;;;;13.93;3.72;;;31.00;99.90;;;;;;4405656;28;658309;-70
2021/06/21 09:10:24;;;;;;;17.70;3.55;;;31.10;99.90;;;;;;4432016;28;657230;-73
2021/06/21 09:13:13;;;;;;;15.70;3.90;;;31.10;99.90;;;;;;4390671;28;657698;-72
2021/06/21 09:16:01;;;;;;;13.50;3.50;;;31.20;99.90;;;;;;4409011;28;658358;-72
2021/06/21 09:18:49;;;;;;;19.55;3.90;;;31.40;99.90;;;;;;4416230;28;657760;-72
2021/06/21 09:21:39;;;;;;;17.33;3.78;;;31.50;99.90;;;;;;4414770;28;658048;-73
2021/06/21 09:24:32;;;;;;;21.55;4.78;;;31.60;99.90;;;;;;4393460;28;657830;-72
2021/06/21 09:27:20;;;;;;;11.57;4.00;;;32.00;99.90;;;;;;4367281;28;658079;-73
2021/06/21 09:30:10;;;;;;;16.48;3.83;;;32.00;99.60;;;;;;4406820;28;657884;-71
2021/06/21 09:32:59;;;;;;;13.40;3.40;;;32.20;97.60;;;;;;4426671;28;657728;-71
2021/06/21 09:35:47;;;;;;;15.15;3.72;;;32.10;96.20;;;;;;4417407;28;657840;-73
2021/06/21 09:38:35;;;;;;;19.75;3.65;;;32.10;97.00;;;;;;4418564;28;658764;-73
2021/06/21 09:41:24;;;;;;;13.80;3.50;;;32.10;96.30;;;;;;4432229;28;657697;-70
2021/06/21 09:44:33;;;;;;;15.88;3.60;;;32.40;96.20;;;;;;4451439;28;657594;-73
2021/06/21 09:47:26;;;;;;;10.95;3.63;;;32.50;96.00;;;;;;4408598;28;657766;-72
2021/06/21 09:50:14;;;;;;;9.05;3.55;;;32.40;93.80;;;;;;4385575;28;658653;-71
2021/06/21 09:53:02;;;;;;;9.40;3.63;;;32.60;94.00;;;;;;4432771;28;656389;-73
2021/06/21 09:55:50;;;;;;;11.98;4.32;;;32.90;92.50;;;;;;4411449;28;656990;-71
2021/06/21 09:58:39;;;;;;;14.95;3.83;;;33.20;92.70;;;;;;4420720;28;658273;-71
2021/06/21 10:01:31;;;;;;;19.02;3.75;;;33.20;92.50;;;;;;4437328;28;657901;-73
2021/06/21 10:04:25;;;;;;;21.77;3.50;;;32.90;90.60;;;;;;4415215;28;657431;-72
2021/06/21 10:07:30;;;;;;;15.83;3.67;;;32.90;90.10;;;;;;4422039;28;657486;-72
2021/06/21 10:10:20;;;;;;;16.25;3.83;;;33.10;90.10;;;;;;4400850;28;657813;-71
2021/06/21 10:13:08;;;;;;;15.00;4.03;;;33.00;88.80;;;;;;4409582;28;657410;-70
2021/06/21 10:15:57;;;;;;;16.17;3.88;;;32.90;90.70;;;;;;4414940;28;658009;-73
2021/06/21 10:18:45;;;;;;;12.38;3.63;;;33.00;89.90;;;;;;4392513;28;658125;-72
2021/06/21 10:21:33;;;;;;;13.18;3.65;;;33.10;88.20;;;;;;4422287;28;657588;-70
2021/06/21 10:24:21;;;;;;;10.05;3.53;;;33.30;88.10;;;;;;4437844;28;657568;-73
2021/06/21 10:27:09;;;;;;;21.00;4.63;;;33.60;87.00;;;;;;4418104;28;658080;-72
2021/06/21 10:29:57;;;;;;;14.13;3.80;;;33.40;86.40;;;;;;4449924;28;657219;-73
2021/06/21 10:32:46;;;;;;;12.88;3.22;;;33.70;82.20;;;;;;4392589;28;658749;-72
2021/06/21 10:35:34;;;;;;;10.75;3.33;;;33.70;81.20;;;;;;4396599;28;657844;-72
2021/06/21 10:38:21;;;;;;;8.63;3.20;;;33.80;83.00;;;;;;4433175;28;657111;-73
2021/06/21 10:41:10;;;;;;;10.70;3.53;;;33.90;80.00;;;;;;4414411;28;656878;-72
2021/06/21 10:43:58;;;;;;;10.57;3.38;;;33.60;80.00;;;;;;4416144;28;657876;-70
2021/06/21 10:46:46;;;;;;;14.75;3.75;;;33.70;76.80;;;;;;4435532;28;658662;-73
2021/06/21 10:49:35;;;;;;;19.48;3.38;;;34.00;77.00;;;;;;4426078;28;657864;-71
2021/06/21 10:52:47;;;;;;;12.52;3.42;;;33.90;75.00;;;;;;4431074;28;657454;-70
2021/06/21 10:55:37;;;;;;;10.07;3.33;;;33.90;74.60;;;;;;4317829;28;658191;-72
2021/06/21 10:58:39;;;;;;;13.63;3.28;;;34.00;75.20;;;;;;4344024;28;658420;-73
2021/06/21 11:01:27;;;;;;;13.07;3.30;;;34.00;71.50;;;;;;4337355;28;657653;-74
2021/06/21 11:04:46;;;;;;;12.05;2.85;;;34.30;74.40;;;;;;4343881;28;658715;-73
2021/06/21 11:07:33;;;;;;;19.67;3.17;;;34.30;69.80;;;;;;4334845;28;658086;-73
2021/06/21 11:10:29;;;;;;;7.38;2.90;;;34.60;69.60;;;;;;4379017;28;657646;-73
2021/06/21 11:13:41;;;;;;;18.13;3.40;;;34.70;70.60;;;;;;4353614;28;657086;-73
2021/06/21 11:16:29;;;;;;;21.43;3.00;;;34.80;70.70;;;;;;4333263;28;658013;-72
2021/06/21 11:19:41;;;;;;;11.75;3.30;;;34.90;66.40;;;;;;4379127;28;657376;-73
2021/06/21 11:22:49;;;;;;;21.23;2.80;;;35.00;63.00;;;;;;4333445;28;657958;-72
2021/06/21 11:25:39;;;;;;;14.20;3.07;;;35.00;64.10;;;;;;4356481;28;657466;-73
2021/06/21 11:28:37;;;;;;;12.07;2.73;;;35.10;65.00;;;;;;4356278;28;657389;-73
2021/06/21 11:31:26;;;;;;;9.02;2.42;;;34.90;63.30;;;;;;4324511;28;658228;-72
2021/06/21 11:34:13;;;;;;;16.23;3.00;;;35.10;61.60;;;;;;4329503;28;656650;-72
2021/06/21 11:37:01;;;;;;;11.35;2.53;;;35.20;63.30;;;;;;4426905;28;658224;-72
2021/06/21 11:39:50;;;;;;;17.02;3.28;;;35.20;61.10;;;;;;4413428;28;657499;-72
2021/06/21 11:42:38;;;;;;;11.10;2.53;;;35.40;63.00;;;;;;4419114;28;657558;-70
2021/06/21 11:45:50;;;;;;;12.88;2.92;;;35.10;60.20;;;;;;4431508;28;658893;-72
2021/06/21 11:48:39;;;;;;;12.02;2.53;;;34.90;59.80;;;;;;4397983;28;657607;-70
2021/06/21 11:51:27;;;;;;;9.02;2.33;;;35.30;59.70;;;;;;4427306;28;658431;-72
2021/06/21 11:54:14;;;;;;;6.30;2.35;;;35.50;57.90;;;;;;4427041;28;657667;-73
2021/06/21 11:57:04;;;;;;;9.13;2.70;;;35.40;57.70;;;;;;4450288;28;656189;-73
2021/06/21 11:59:52;;;;;;;10.35;2.72;;;35.20;58.30;;;;;;4427264;28;656523;-71
2021/06/21 12:02:40;;;;;;;14.80;2.83;;;35.40;59.30;;;;;;4429401;28;658555;-71
2021/06/21 12:05:28;;;;;;;14.23;2.90;;;35.60;57.90;;;;;;4429418;28;657800;-71
2021/06/21 12:08:16;;;;;;;13.75;2.75;;;35.70;58.00;;;;;;4449061;28;658990;-72
2021/06/21 12:11:14;;;;;;;7.78;2.33;;;35.60;58.80;;;;;;4426352;28;657717;-71
2021/06/21 12:14:04;;;;;;;13.82;2.53;;;35.70;57.40;;;;;;4427948;28;656688;-71
2021/06/21 12:16:52;;;;;;;10.32;2.60;;;35.70;58.90;;;;;;4425529;28;657535;-71
2021/06/21 12:19:40;;;;;;;12.93;2.35;;;35.50;56.70;;;;;;4425809;28;659174;-72
2021/06/21 12:22:28;;;;;;;11.90;2.78;;;35.60;58.10;;;;;;4448065;28;657426;-70
2021/06/21 12:25:24;;;;;;;8.68;2.53;;;35.90;56.90;;;;;;4452615;28;658425;-72
2021/06/21 12:28:13;;;;;;;8.02;2.33;;;35.80;55.00;;;;;;4412744;28;656941;-73
2021/06/21 12:31:05;;;;;;;10.63;2.77;;;36.10;56.00;;;;;;4411557;28;657627;-72
2021/06/21 12:33:54;;;;;;;6.57;2.63;;;36.30;56.80;;;;;;4409252;28;658177;-73
2021/06/21 12:36:42;;;;;;;11.93;3.20;;;36.10;54.30;;;;;;4410521;28;657009;-73
2021/06/21 12:39:35;;;;;;;13.80;2.58;;;36.10;53.10;;;;;;4409076;28;658704;-72
2021/06/21 12:42:23;;;;;;;10.70;2.90;;;36.00;54.10;;;;;;4401635;28;657686;-70
2021/06/21 12:45:12;;;;;;;10.07;2.45;;;35.80;54.10;;;;;;4430790;28;658251;-72
2021/06/21 12:48:01;;;;;;;9.32;2.90;;;36.00;53.10;;;;;;4409018;28;658443;-71
2021/06/21 12:50:49;;;;;;;6.60;2.53;;;36.00;53.30;;;;;;4409654;28;657327;-72
2021/06/21 12:53:37;;;;;;;5.97;2.33;;;36.30;52.60;;;;;;4432036;28;656919;-72
2021/06/21 12:56:26;;;;;;;14.38;2.55;;;36.10;53.20;;;;;;4415054;28;658319;-73
2021/06/21 12:59:26;;;;;;;17.37;2.80;;;35.80;52.90;;;;;;4390662;28;657798;-72
2021/06/21 13:02:21;;;;;;;9.30;2.80;;;36.00;54.10;;;;;;4399879;28;657433;-71
2021/06/21 13:05:11;;;;;;;13.50;2.43;;;36.20;54.60;;;;;;4405864;28;657324;-73
2021/06/21 13:07:59;;;;;;;8.70;2.47;;;36.40;51.30;;;;;;4428580;28;657473;-72
2021/06/21 13:10:48;;;;;;;8.65;2.40;;;36.40;51.10;;;;;;4453036;28;656851;-72
2021/06/21 13:13:37;;;;;;;18.63;2.95;;;36.20;52.40;;;;;;4433795;28;657055;-72
2021/06/21 13:16:29;;;;;;;7.53;2.35;;;36.00;53.10;;;;;;4419494;28;658185;-72
2021/06/21 13:19:18;;;;;;;9.38;2.30;;;36.20;51.70;;;;;;4407653;28;656724;-72
2021/06/21 13:22:10;;;;;;;13.00;2.73;;;36.10;49.70;;;;;;4415600;28;656870;-72
2021/06/21 13:24:59;;;;;;;12.85;2.50;;;36.10;50.80;;;;;;4393159;28;657476;-71
2021/06/21 13:27:50;;;;;;;15.40;2.35;;;36.30;50.00;;;;;;4434469;28;658924;-72
2021/06/21 13:30:39;;;;;;;7.83;2.13;;;36.30;51.10;;;;;;4393028;28;657913;-71
2021/06/21 13:33:27;;;;;;;11.55;2.40;;;36.50;50.60;;;;;;4435508;28;656801;-72
2021/06/21 13:36:15;;;;;;;9.32;2.20;;;36.40;50.80;;;;;;4412440;28;658531;-72
2021/06/21 13:39:04;;;;;;;12.65;2.58;;;36.20;50.10;;;;;;4426572;28;656187;-70
2021/06/21 13:41:59;;;;;;;10.10;2.35;;;36.30;48.70;;;;;;4426815;28;657482;-73
2021/06/21 13:44:53;;;;;;;10.13;2.42;;;36.40;49.50;;;;;;4415132;28;657803;-73
2021/06/21 13:47:42;;;;;;;14.00;1.90;;;36.50;50.30;;;;;;4391711;28;658506;-72
2021/06/21 13:50:31;;;;;;;7.40;2.10;;;36.50;50.70;;;;;;4417974;28;657946;-71
2021/06/21 13:53:26;;;;;;;14.10;2.60;;;36.40;51.40;;;;;;4419412;28;656297;-72
2021/06/21 13:56:26;;;;;;;16.37;2.40;;;36.30;49.70;;;;;;4391892;28;658159;-70
2021/06/21 13:59:13;;;;;;;13.32;2.42;;;36.50;51.20;;;;;;4420575;28;657711;-72
2021/06/21 14:02:03;;;;;;;10.48;2.60;;;36.60;50.40;;;;;;4448426;28;658115;-73
2021/06/21 14:04:51;;;;;;;13.07;2.20;;;37.00;49.70;;;;;;4410584;28;658490;-72
2021/06/21 14:07:38;;;;;;;5.20;2.22;;;36.60;51.10;;;;;;4420673;28;657509;-71
2021/06/21 14:10:26;;;;;;;8.85;2.20;;;36.60;50.90;;;;;;4442002;28;657575;-72
2021/06/21 14:13:15;;;;;;;8.27;2.05;;;36.40;49.70;;;;;;4429087;28;657268;-72
2021/06/21 14:16:03;;;;;;;8.57;2.17;;;36.50;50.50;;;;;;4445800;28;657064;-70
2021/06/21 14:18:51;;;;;;;10.82;2.13;;;36.50;50.60;;;;;;4440996;28;658333;-72
2021/06/21 14:21:41;;;;;;;10.68;2.30;;;36.60;50.80;;;;;;4431261;28;657433;-71
2021/06/21 14:24:28;;;;;;;14.27;2.38;;;36.80;49.90;;;;;;4416675;28;657887;-71